Time;durP1;ratioP1;P1;durP2;ratioP2;P2;SDS_P1;SDS_P2;PMS_P1;PMS_P2;Temp;Humidity;BMP_temperature;BMP_pressure;BME280_temperature;BME280_humidity;BME280_pressure;Samples;Min_cycle;Max_cycle;Signal;HPM_P1;HPM_P2
2021/11/04 00:00:14;;;;;;;49.72;18.30;;;;;;;;;;5036461;28;20099;-68
2021/11/04 00:02:41;;;;;;;54.95;17.35;;;;;;;;;;5027556;28;20040;-68
2021/11/04 00:05:08;;;;;;;59.78;16.25;;;;;;;;;;5034607;28;20064;-68
2021/11/04 00:07:34;;;;;;;50.15;17.45;;;;;;;;;;5032334;28;20339;-67
2021/11/04 00:10:00;;;;;;;56.97;19.60;;;;;;;;;;5039347;28;20041;-68
2021/11/04 00:12:27;;;;;;;50.85;18.15;;;;;;;;;;5031698;28;20045;-68
2021/11/04 00:14:53;;;;;;;71.63;18.67;;;;;;;;;;5039541;28;20056;-68
2021/11/04 00:17:19;;;;;;;84.57;18.85;;;;;;;;;;5029773;28;20056;-68
2021/11/04 00:19:46;;;;;;;53.47;17.20;;;;;;;;;;5031265;28;20049;-67
2021/11/04 00:22:12;;;;;;;80.25;16.90;;;;;;;;;;5039591;28;20045;-68
2021/11/04 00:24:38;;;;;;;62.83;17.67;;;;;;;;;;5031029;28;20095;-68
2021/11/04 00:27:05;;;;;;;56.72;17.38;;;;;;;;;;5040165;28;20068;-68
2021/11/04 00:29:32;;;;;;;50.53;17.08;;;;;;;;;;5030052;28;20053;-67
2021/11/04 00:32:00;;;;;;;54.05;18.15;;;;;;;;;;5033289;28;20300;-67
2021/11/04 00:34:26;;;;;;;53.90;15.75;;;;;;;;;;5038737;28;20055;-66
2021/11/04 00:36:53;;;;;;;63.13;15.85;;;;;;;;;;5031453;28;20114;-66
2021/11/04 00:39:19;;;;;;;86.70;16.15;;;;;;;;;;5039654;28;20048;-66
2021/11/04 00:41:46;;;;;;;45.97;14.80;;;;;;;;;;5029726;28;20479;-67
2021/11/04 00:44:12;;;;;;;55.33;15.95;;;;;;;;;;5034780;28;20401;-67
2021/11/04 00:46:39;;;;;;;48.65;17.08;;;;;;;;;;5026018;28;20091;-66
2021/11/04 00:49:05;;;;;;;81.45;18.75;;;;;;;;;;5038832;28;20048;-66
2021/11/04 00:51:32;;;;;;;113.15;17.40;;;;;;;;;;5039440;28;20074;-66
2021/11/04 00:53:59;;;;;;;73.60;15.13;;;;;;;;;;5031196;28;20144;-67
2021/11/04 00:56:25;;;;;;;113.95;17.15;;;;;;;;;;5039266;28;20076;-67
2021/11/04 00:58:51;;;;;;;66.10;16.88;;;;;;;;;;5026122;28;20059;-67
2021/11/04 01:01:18;;;;;;;117.45;17.33;;;;;;;;;;5037632;28;20052;-67
2021/11/04 01:03:45;;;;;;;100.35;16.17;;;;;;;;;;5029578;28;20465;-67
2021/11/04 01:06:11;;;;;;;66.57;16.67;;;;;;;;;;5038648;28;20049;-67
2021/11/04 01:08:38;;;;;;;190.43;19.02;;;;;;;;;;5038680;28;20053;-67
2021/11/04 01:11:05;;;;;;;101.10;16.35;;;;;;;;;;5026168;28;20474;-67
2021/11/04 01:13:31;;;;;;;77.88;15.43;;;;;;;;;;5033416;28;20437;-67
2021/11/04 01:15:57;;;;;;;107.55;15.90;;;;;;;;;;5030284;28;20068;-67
2021/11/04 01:18:24;;;;;;;74.13;15.48;;;;;;;;;;5039030;28;20417;-67
2021/11/04 01:20:50;;;;;;;138.48;17.83;;;;;;;;;;5030943;28;20048;-67
2021/11/04 01:23:17;;;;;;;73.90;17.55;;;;;;;;;;5038670;28;20140;-66
2021/11/04 01:25:43;;;;;;;100.18;17.13;;;;;;;;;;5033077;28;20140;-66
2021/11/04 01:28:09;;;;;;;113.72;17.13;;;;;;;;;;5025702;28;20362;-66
2021/11/04 01:30:37;;;;;;;118.43;17.25;;;;;;;;;;5037615;28;20118;-66
2021/11/04 01:33:03;;;;;;;50.83;13.82;;;;;;;;;;5032337;28;20056;-66
2021/11/04 01:35:31;;;;;;;85.18;15.77;;;;;;;;;;5038592;28;20167;-66
2021/11/04 01:37:58;;;;;;;59.85;17.30;;;;;;;;;;5029810;28;20053;-66
2021/11/04 01:40:25;;;;;;;99.47;16.55;;;;;;;;;;5029464;28;20410;-66
2021/11/04 01:42:52;;;;;;;61.28;16.23;;;;;;;;;;5036745;28;20979;-66
2021/11/04 01:45:18;;;;;;;81.28;17.65;;;;;;;;;;5029367;28;20430;-66
2021/11/04 01:47:46;;;;;;;142.90;17.95;;;;;;;;;;5036928;28;20147;-67
2021/11/04 01:50:13;;;;;;;80.77;19.10;;;;;;;;;;5029856;28;20052;-67
2021/11/04 01:52:45;;;;;;;263.63;22.77;;;;;;;;;;5033465;28;20358;-66
2021/11/04 01:55:16;;;;;;;87.85;18.60;;;;;;;;;;5024650;28;20053;-66
2021/11/04 01:57:42;;;;;;;62.45;18.60;;;;;;;;;;5037852;28;20060;-67
2021/11/04 02:00:10;;;;;;;131.88;21.15;;;;;;;;;;5038618;28;20132;-67
2021/11/04 02:02:43;;;;;;;52.28;19.10;;;;;;;;;;5031833;28;20133;-67
2021/11/04 02:05:10;;;;;;;51.97;17.85;;;;;;;;;;5037835;28;20044;-68
2021/11/04 02:07:43;;;;;;;74.57;20.70;;;;;;;;;;5024919;28;20052;-67
2021/11/04 02:10:11;;;;;;;60.60;18.30;;;;;;;;;;5034718;28;20425;-67
2021/11/04 02:12:42;;;;;;;52.20;19.25;;;;;;;;;;5028313;28;20368;-68
2021/11/04 02:15:08;;;;;;;52.75;15.73;;;;;;;;;;5037316;28;20052;-67
2021/11/04 02:17:35;;;;;;;65.03;18.35;;;;;;;;;;5033158;28;20561;-67
2021/11/04 02:20:02;;;;;;;54.97;18.10;;;;;;;;;;5031649;28;20056;-67
2021/11/04 02:22:28;;;;;;;50.58;18.67;;;;;;;;;;5032368;28;20463;-67
2021/11/04 02:25:00;;;;;;;43.28;17.23;;;;;;;;;;5028875;28;20060;-67
2021/11/04 02:27:26;;;;;;;45.08;17.13;;;;;;;;;;5036962;28;20055;-67
2021/11/04 02:29:53;;;;;;;41.33;18.45;;;;;;;;;;5028775;28;20271;-67
2021/11/04 02:32:19;;;;;;;64.85;19.92;;;;;;;;;;5037058;28;20057;-67
2021/11/04 02:34:47;;;;;;;61.60;20.17;;;;;;;;;;5028822;28;20055;-67
2021/11/04 02:37:13;;;;;;;44.03;19.27;;;;;;;;;;5030556;28;20181;-67
2021/11/04 02:39:40;;;;;;;51.70;17.92;;;;;;;;;;5034112;28;20049;-67
2021/11/04 02:42:07;;;;;;;53.17;19.20;;;;;;;;;;5030663;28;20049;-67
2021/11/04 02:44:35;;;;;;;70.53;19.70;;;;;;;;;;5038961;28;20088;-67
2021/11/04 02:47:02;;;;;;;51.53;21.65;;;;;;;;;;5032596;28;20037;-67
2021/11/04 02:49:30;;;;;;;55.45;20.83;;;;;;;;;;5032248;28;20051;-67
2021/11/04 02:51:57;;;;;;;66.57;22.83;;;;;;;;;;5025218;28;20415;-67
2021/11/04 02:54:23;;;;;;;53.35;21.90;;;;;;;;;;5036314;28;20429;-67
2021/11/04 02:56:51;;;;;;;56.38;22.02;;;;;;;;;;5036637;28;20040;-67
2021/11/04 02:59:20;;;;;;;91.32;23.95;;;;;;;;;;5029830;28;20078;-67
2021/11/04 03:01:47;;;;;;;57.03;23.10;;;;;;;;;;5035540;28;20052;-67
2021/11/04 03:04:14;;;;;;;63.47;24.27;;;;;;;;;;5022759;28;20721;-67
2021/11/04 03:06:41;;;;;;;58.40;23.75;;;;;;;;;;5036563;28;20045;-67
2021/11/04 03:09:07;;;;;;;57.20;22.65;;;;;;;;;;5030512;28;20049;-67
2021/11/04 03:11:34;;;;;;;56.97;22.48;;;;;;;;;;5036105;28;20136;-68
2021/11/04 03:14:01;;;;;;;59.13;22.95;;;;;;;;;;5037579;28;20398;-68
2021/11/04 03:16:30;;;;;;;70.18;23.88;;;;;;;;;;5024018;28;20053;-67
2021/11/04 03:18:57;;;;;;;79.50;24.05;;;;;;;;;;5032855;28;20044;-68
2021/11/04 03:21:27;;;;;;;66.72;24.42;;;;;;;;;;5028139;28;20052;-66
2021/11/04 03:23:53;;;;;;;62.88;21.95;;;;;;;;;;5033632;28;20076;-67
2021/11/04 03:26:22;;;;;;;58.58;24.02;;;;;;;;;;5029909;28;20045;-67
2021/11/04 03:28:48;;;;;;;64.03;22.98;;;;;;;;;;5035819;28;20060;-67
2021/11/04 03:31:14;;;;;;;82.20;24.17;;;;;;;;;;5030648;28;20053;-67
2021/11/04 03:33:41;;;;;;;62.00;24.45;;;;;;;;;;5025546;28;20049;-66
2021/11/04 03:36:08;;;;;;;67.00;24.77;;;;;;;;;;5036601;28;20300;-67
2021/11/04 03:38:35;;;;;;;77.45;24.27;;;;;;;;;;5031002;28;20214;-67
2021/11/04 03:41:02;;;;;;;88.22;26.85;;;;;;;;;;5039395;28;20041;-67
2021/11/04 03:43:29;;;;;;;62.83;25.17;;;;;;;;;;5029772;28;20053;-66
2021/11/04 03:45:55;;;;;;;62.28;25.20;;;;;;;;;;5033325;28;20044;-66
2021/11/04 03:48:21;;;;;;;68.95;26.08;;;;;;;;;;5040255;28;20049;-67
2021/11/04 03:50:49;;;;;;;86.07;28.00;;;;;;;;;;5032134;28;20521;-66
2021/11/04 03:53:15;;;;;;;69.35;26.02;;;;;;;;;;5039410;28;20072;-67
2021/11/04 03:55:42;;;;;;;85.05;25.95;;;;;;;;;;5032161;28;20052;-67
2021/11/04 03:58:09;;;;;;;81.80;27.63;;;;;;;;;;5036194;28;20049;-66
2021/11/04 04:00:35;;;;;;;80.35;28.73;;;;;;;;;;5034790;28;20045;-66
2021/11/04 04:03:02;;;;;;;106.97;32.03;;;;;;;;;;5032761;28;20418;-66
2021/11/04 04:05:29;;;;;;;97.35;30.60;;;;;;;;;;5040176;28;20044;-66
2021/11/04 04:07:56;;;;;;;72.72;28.05;;;;;;;;;;5032106;28;20513;-66
2021/11/04 04:10:23;;;;;;;90.07;31.25;;;;;;;;;;5040014;28;20144;-66
2021/11/04 04:12:49;;;;;;;75.32;29.30;;;;;;;;;;5026982;28;20097;-66
2021/11/04 04:15:15;;;;;;;73.63;28.05;;;;;;;;;;5035467;28;20048;-66
2021/11/04 04:17:42;;;;;;;81.00;29.50;;;;;;;;;;5035630;28;20053;-66
2021/11/04 04:20:08;;;;;;;85.90;30.58;;;;;;;;;;5035932;28;20128;-66
2021/11/04 04:22:34;;;;;;;90.00;29.67;;;;;;;;;;5040058;28;20402;-66
2021/11/04 04:25:02;;;;;;;94.80;30.60;;;;;;;;;;5032894;28;20044;-66
2021/11/04 04:27:28;;;;;;;87.10;30.25;;;;;;;;;;5032315;28;20055;-67
2021/11/04 04:29:54;;;;;;;86.68;30.92;;;;;;;;;;5029825;28;20646;-67
2021/11/04 04:32:25;;;;;;;72.95;28.98;;;;;;;;;;5039767;28;20346;-67
2021/11/04 04:34:52;;;;;;;71.88;28.92;;;;;;;;;;5036255;28;20053;-66
2021/11/04 04:37:18;;;;;;;71.43;29.13;;;;;;;;;;5035946;28;20053;-66
2021/11/04 04:39:44;;;;;;;63.35;27.33;;;;;;;;;;5033422;28;20682;-66
2021/11/04 04:42:11;;;;;;;64.05;27.83;;;;;;;;;;5027284;28;20045;-66
2021/11/04 04:44:38;;;;;;;72.50;30.13;;;;;;;;;;5038345;28;20049;-66
2021/11/04 04:47:04;;;;;;;63.33;27.05;;;;;;;;;;5031538;28;20045;-66
2021/11/04 04:49:31;;;;;;;64.00;27.63;;;;;;;;;;5037113;28;20507;-66
2021/11/04 04:51:57;;;;;;;57.65;26.60;;;;;;;;;;5038467;28;20063;-66
2021/11/04 04:54:26;;;;;;;59.08;26.48;;;;;;;;;;5025338;28;20155;-66
2021/11/04 04:56:52;;;;;;;62.70;27.40;;;;;;;;;;5035888;28;20057;-66
2021/11/04 04:59:18;;;;;;;61.65;27.25;;;;;;;;;;5030408;28;20085;-66
2021/11/04 05:01:45;;;;;;;55.92;26.58;;;;;;;;;;5038867;28;20615;-66
2021/11/04 05:04:13;;;;;;;58.63;25.52;;;;;;;;;;5029751;28;20067;-66
2021/11/04 05:06:39;;;;;;;54.22;25.20;;;;;;;;;;5035785;28;20044;-67
2021/11/04 05:09:06;;;;;;;58.28;27.38;;;;;;;;;;5036832;28;20147;-66
2021/11/04 05:11:32;;;;;;;57.58;25.75;;;;;;;;;;5029388;28;20407;-66
2021/11/04 05:13:58;;;;;;;63.35;27.40;;;;;;;;;;5036791;28;20052;-66
2021/11/04 05:16:25;;;;;;;57.83;26.20;;;;;;;;;;5028640;28;20045;-66
2021/11/04 05:18:51;;;;;;;54.70;25.05;;;;;;;;;;5036162;28;20493;-66
2021/11/04 05:21:17;;;;;;;56.10;25.67;;;;;;;;;;5023910;28;20052;-67
2021/11/04 05:23:44;;;;;;;56.28;25.95;;;;;;;;;;5037962;28;20152;-66
2021/11/04 05:26:10;;;;;;;62.72;27.30;;;;;;;;;;5038515;28;20079;-66
2021/11/04 05:28:36;;;;;;;64.03;28.25;;;;;;;;;;5029299;28;20040;-66
2021/11/04 05:31:03;;;;;;;56.70;25.58;;;;;;;;;;5038525;28;20044;-66
2021/11/04 05:33:29;;;;;;;58.15;25.50;;;;;;;;;;5026817;28;20056;-66
2021/11/04 05:35:55;;;;;;;69.15;27.27;;;;;;;;;;5033882;28;20049;-66
2021/11/04 05:38:22;;;;;;;60.88;27.02;;;;;;;;;;5031290;28;20395;-66
2021/11/04 05:40:48;;;;;;;63.47;25.35;;;;;;;;;;5035403;28;20065;-66
2021/11/04 05:43:14;;;;;;;74.10;27.95;;;;;;;;;;5038275;28;20049;-66
2021/11/04 05:45:41;;;;;;;64.68;27.20;;;;;;;;;;5029708;28;20508;-66
2021/11/04 05:48:07;;;;;;;93.65;28.35;;;;;;;;;;5033290;28;20053;-66
2021/11/04 05:50:34;;;;;;;61.22;25.45;;;;;;;;;;5024812;28;20057;-66
2021/11/04 05:53:00;;;;;;;65.28;26.63;;;;;;;;;;5037428;28;20044;-66
2021/11/04 05:55:27;;;;;;;72.15;27.60;;;;;;;;;;5030680;28;20059;-66
2021/11/04 05:57:53;;;;;;;68.70;27.98;;;;;;;;;;5037066;28;20441;-66
2021/11/04 06:00:19;;;;;;;55.28;25.55;;;;;;;;;;5037542;28;20060;-66
2021/11/04 06:02:45;;;;;;;63.05;26.70;;;;;;;;;;5024691;28;20429;-66
2021/11/04 06:05:12;;;;;;;55.72;25.85;;;;;;;;;;5033972;28;20069;-66
2021/11/04 06:07:38;;;;;;;60.13;26.33;;;;;;;;;;5033255;28;20049;-66
2021/11/04 06:10:05;;;;;;;60.58;28.08;;;;;;;;;;5028005;28;20379;-66
2021/11/04 06:12:31;;;;;;;78.57;28.92;;;;;;;;;;5026171;28;21754;-66
2021/11/04 06:14:57;;;;;;;58.10;25.73;;;;;;;;;;5031188;28;20049;-67
2021/11/04 06:17:24;;;;;;;95.55;27.20;;;;;;;;;;5021084;28;20053;-67
2021/11/04 06:19:50;;;;;;;102.63;27.88;;;;;;;;;;5021126;28;20065;-66
2021/11/04 06:22:16;;;;;;;76.13;27.48;;;;;;;;;;5034322;28;20053;-66
2021/11/04 06:24:42;;;;;;;123.65;27.35;;;;;;;;;;5021770;28;20053;-66
2021/11/04 06:27:09;;;;;;;86.57;29.35;;;;;;;;;;5028433;28;20080;-66
2021/11/04 06:29:35;;;;;;;79.18;27.27;;;;;;;;;;5021779;28;20060;-65
2021/11/04 06:32:01;;;;;;;57.50;26.00;;;;;;;;;;5028867;28;20053;-67
2021/11/04 06:34:28;;;;;;;61.60;29.05;;;;;;;;;;5027743;28;20448;-67
2021/11/04 06:36:54;;;;;;;61.97;27.60;;;;;;;;;;5020309;28;20528;-66
2021/11/04 06:39:20;;;;;;;61.92;26.55;;;;;;;;;;5028210;28;20053;-66
2021/11/04 06:41:47;;;;;;;59.88;27.40;;;;;;;;;;5017850;28;20045;-66
2021/11/04 06:44:13;;;;;;;62.53;27.33;;;;;;;;;;5023591;28;20512;-66
2021/11/04 06:46:41;;;;;;;59.08;25.02;;;;;;;;;;5019799;28;20041;-66
2021/11/04 06:49:08;;;;;;;83.13;26.87;;;;;;;;;;5036073;28;20057;-66
2021/11/04 06:51:36;;;;;;;57.10;25.65;;;;;;;;;;5026541;28;20293;-66
2021/11/04 06:54:03;;;;;;;84.55;25.35;;;;;;;;;;5021651;28;20056;-68
2021/11/04 06:56:36;;;;;;;69.93;26.35;;;;;;;;;;5023987;28;20686;-66
2021/11/04 06:59:03;;;;;;;80.43;23.70;;;;;;;;;;5016852;28;20049;-66
2021/11/04 07:01:31;;;;;;;72.95;23.63;;;;;;;;;;5029467;28;20077;-66
2021/11/04 07:04:01;;;;;;;93.87;25.63;;;;;;;;;;5021161;28;20052;-66
2021/11/04 07:06:30;;;;;;;58.83;25.70;;;;;;;;;;5027863;28;20072;-67
2021/11/04 07:09:01;;;;;;;55.78;24.88;;;;;;;;;;5028152;28;20057;-67
2021/11/04 07:11:33;;;;;;;63.20;24.08;;;;;;;;;;5019564;28;20060;-67
2021/11/04 07:14:00;;;;;;;70.38;25.77;;;;;;;;;;5036179;28;20689;-67
2021/11/04 07:16:27;;;;;;;64.57;26.10;;;;;;;;;;5035162;28;20056;-67
2021/11/04 07:18:55;;;;;;;58.70;25.85;;;;;;;;;;5031758;28;20049;-67
2021/11/04 07:21:24;;;;;;;73.25;26.83;;;;;;;;;;5034287;28;20057;-67
2021/11/04 07:24:01;;;;;;;65.55;28.48;;;;;;;;;;5031597;28;20140;-67
2021/11/04 07:26:35;;;;;;;167.25;25.50;;;;;;;;;;5018093;28;20528;-67
2021/11/04 07:29:02;;;;;;;62.20;24.23;;;;;;;;;;5044507;28;20057;-67
2021/11/04 07:31:32;;;;;;;78.00;24.00;;;;;;;;;;5034334;28;20045;-67
2021/11/04 07:34:01;;;;;;;47.75;21.90;;;;;;;;;;5027968;28;20053;-67
2021/11/04 07:36:28;;;;;;;51.00;24.45;;;;;;;;;;5031280;28;20061;-67
2021/11/04 07:38:56;;;;;;;48.60;24.33;;;;;;;;;;5018070;28;20057;-67
2021/11/04 07:41:22;;;;;;;50.60;22.70;;;;;;;;;;5024749;28;20044;-67
2021/11/04 07:43:49;;;;;;;48.15;22.05;;;;;;;;;;5028049;28;20072;-67
2021/11/04 07:46:17;;;;;;;72.80;23.20;;;;;;;;;;5031306;28;20049;-68
2021/11/04 07:48:43;;;;;;;56.70;24.95;;;;;;;;;;5035104;28;20041;-66
2021/11/04 07:51:10;;;;;;;53.17;21.98;;;;;;;;;;5028926;28;20055;-65
2021/11/04 07:53:40;;;;;;;45.42;22.65;;;;;;;;;;5025415;28;20068;-66
2021/11/04 07:56:09;;;;;;;58.50;20.40;;;;;;;;;;5021453;28;20045;-66
2021/11/04 07:58:35;;;;;;;;;;;;;;;;;;5031015;28;20524;-67
2021/11/04 08:01:02;;;;;;;40.95;19.60;;;;;;;;;;5031672;28;20385;-67
2021/11/04 08:03:33;;;;;;;44.50;19.00;;;;;;;;;;5031351;28;20067;-67
2021/11/04 08:06:00;;;;;;;41.53;18.75;;;;;;;;;;5029409;28;20049;-66
2021/11/04 08:08:26;;;;;;;40.30;18.35;;;;;;;;;;5016015;28;20059;-66
2021/11/04 08:10:53;;;;;;;32.95;17.67;;;;;;;;;;5029111;28;20246;-66
2021/11/04 08:13:19;;;;;;;37.67;18.33;;;;;;;;;;5032974;28;20056;-67
2021/11/04 08:15:46;;;;;;;42.28;19.35;;;;;;;;;;5029384;28;20346;-66
2021/11/04 08:18:13;;;;;;;37.95;18.13;;;;;;;;;;5024585;28;20080;-66
2021/11/04 08:20:39;;;;;;;41.85;18.65;;;;;;;;;;5029318;28;20055;-66
2021/11/04 08:23:13;;;;;;;46.97;18.15;;;;;;;;;;5031787;28;20050;-66
2021/11/04 08:25:40;;;;;;;49.05;19.77;;;;;;;;;;5023837;28;20060;-66
2021/11/04 08:28:07;;;;;;;38.08;18.40;;;;;;;;;;5035656;28;20473;-67
2021/11/04 08:30:33;;;;;;;35.50;19.65;;;;;;;;;;5035254;28;20057;-66
2021/11/04 08:33:00;;;;;;;44.55;19.70;;;;;;;;;;5030585;28;20482;-66
2021/11/04 08:35:26;;;;;;;41.58;19.90;;;;;;;;;;5019361;28;20115;-67
2021/11/04 08:37:53;;;;;;;44.38;20.92;;;;;;;;;;5024472;28;20060;-67
2021/11/04 08:40:20;;;;;;;39.47;19.10;;;;;;;;;;5027802;28;20052;-66
2021/11/04 08:42:46;;;;;;;41.42;19.48;;;;;;;;;;5023821;28;20434;-66
2021/11/04 08:45:15;;;;;;;;;;;;;;;;;;5030566;28;20116;-66
2021/11/04 08:47:41;;;;;;;37.47;17.85;;;;;;;;;;5022891;28;19921;-66
2021/11/04 08:50:08;;;;;;;34.42;18.80;;;;;;;;;;5037165;28;20049;-66
2021/11/04 08:52:35;;;;;;;34.28;18.38;;;;;;;;;;5023404;28;20045;-67
2021/11/04 08:55:03;;;;;;;40.40;19.92;;;;;;;;;;5041474;28;20627;-66
2021/11/04 08:57:29;;;;;;;35.53;18.95;;;;;;;;;;5034968;28;20053;-67
2021/11/04 08:59:56;;;;;;;39.13;20.13;;;;;;;;;;5022814;28;20041;-67
2021/11/04 09:02:22;;;;;;;36.80;19.88;;;;;;;;;;5036500;28;20060;-67
2021/11/04 09:04:49;;;;;;;34.35;18.30;;;;;;;;;;5027153;28;20489;-67
2021/11/04 09:07:17;;;;;;;38.03;19.10;;;;;;;;;;5030176;28;20045;-67
2021/11/04 09:09:43;;;;;;;35.72;19.38;;;;;;;;;;5038731;28;20068;-67
2021/11/04 09:12:10;;;;;;;38.33;19.65;;;;;;;;;;5030704;28;20053;-66
2021/11/04 09:14:36;;;;;;;39.97;20.55;;;;;;;;;;5040811;28;20746;-67
2021/11/04 09:17:03;;;;;;;38.00;20.88;;;;;;;;;;5017890;28;20060;-66
2021/11/04 09:19:30;;;;;;;36.60;20.98;;;;;;;;;;5042471;28;20065;-67
2021/11/04 09:21:58;;;;;;;37.28;18.92;;;;;;;;;;5038711;28;20055;-67
2021/11/04 09:24:25;;;;;;;36.83;19.80;;;;;;;;;;5029924;28;20086;-67
2021/11/04 09:26:52;;;;;;;37.92;20.00;;;;;;;;;;5023652;28;20054;-67
2021/11/04 09:29:18;;;;;;;38.45;20.08;;;;;;;;;;5025626;28;20056;-67
2021/11/04 09:31:44;;;;;;;44.03;21.48;;;;;;;;;;5028065;28;20058;-67
2021/11/04 09:34:11;;;;;;;45.28;22.08;;;;;;;;;;5022468;28;20136;-67
2021/11/04 09:36:37;;;;;;;38.55;20.88;;;;;;;;;;5034356;28;20052;-67
2021/11/04 09:39:04;;;;;;;45.47;22.02;;;;;;;;;;5035294;28;20475;-67
2021/11/04 09:41:31;;;;;;;38.15;21.58;;;;;;;;;;5024092;28;20045;-68
2021/11/04 09:43:59;;;;;;;42.47;21.92;;;;;;;;;;5019437;28;20089;-67
2021/11/04 09:46:25;;;;;;;40.65;20.88;;;;;;;;;;5029040;28;20041;-67
2021/11/04 09:48:52;;;;;;;43.75;22.33;;;;;;;;;;5036019;28;20056;-67
2021/11/04 09:51:19;;;;;;;40.10;21.65;;;;;;;;;;5031671;28;20057;-67
2021/11/04 09:53:48;;;;;;;40.60;20.90;;;;;;;;;;5028609;28;20057;-67
2021/11/04 09:56:15;;;;;;;40.03;21.73;;;;;;;;;;5017617;28;20060;-67
2021/11/04 09:58:42;;;;;;;46.08;22.92;;;;;;;;;;5025476;28;20056;-67
2021/11/04 10:01:18;;;;;;;36.58;20.58;;;;;;;;;;5029810;28;20051;-67
2021/11/04 10:03:45;;;;;;;37.00;20.52;;;;;;;;;;5048389;28;20135;-67
2021/11/04 10:06:28;;;;;;;44.28;20.67;;;;;;;;;;5026646;28;20065;-67
2021/11/04 10:08:58;;;;;;;36.22;19.90;;;;;;;;;;5039670;28;20046;-67
2021/11/04 10:11:28;;;;;;;37.97;21.55;;;;;;;;;;5024761;28;20060;-67
2021/11/04 10:13:59;;;;;;;42.97;21.85;;;;;;;;;;5036059;28;20049;-67
2021/11/04 10:16:27;;;;;;;37.90;21.65;;;;;;;;;;5028860;28;20061;-67
2021/11/04 10:19:09;;;;;;;37.80;20.63;;;;;;;;;;5020529;28;20081;-67
2021/11/04 10:21:45;;;;;;;37.97;20.20;;;;;;;;;;5024485;28;20298;-67
2021/11/04 10:24:16;;;;;;;37.90;19.65;;;;;;;;;;5016793;28;20092;-68
2021/11/04 10:26:43;;;;;;;42.13;22.27;;;;;;;;;;5026752;28;20076;-67
2021/11/04 10:29:10;;;;;;;33.90;19.95;;;;;;;;;;5022132;28;20053;-67
2021/11/04 10:31:38;;;;;;;38.10;19.95;;;;;;;;;;5027855;28;20375;-68
2021/11/04 10:34:10;;;;;;;44.53;21.90;;;;;;;;;;5028059;28;20068;-67
2021/11/04 10:36:36;;;;;;;40.15;20.60;;;;;;;;;;5016936;28;20494;-67
2021/11/04 10:39:03;;;;;;;42.63;20.27;;;;;;;;;;5024026;28;20060;-68
2021/11/04 10:41:31;;;;;;;39.63;21.38;;;;;;;;;;5020190;28;20099;-68
2021/11/04 10:44:01;;;;;;;38.20;20.50;;;;;;;;;;5041527;28;20049;-68
2021/11/04 10:46:30;;;;;;;44.70;22.48;;;;;;;;;;5023787;28;20050;-68
2021/11/04 10:48:56;;;;;;;;;;;;;;;;;;5031347;28;20587;-68
2021/11/04 10:51:22;;;;;;;36.83;21.40;;;;;;;;;;5022738;28;19924;-68
2021/11/04 10:54:01;;;;;;;37.15;20.63;;;;;;;;;;5020736;28;20538;-68
2021/11/04 10:56:28;;;;;;;36.13;19.85;;;;;;;;;;5028403;28;20085;-68
2021/11/04 10:59:12;;;;;;;34.45;19.60;;;;;;;;;;5024404;28;20052;-68
2021/11/04 11:01:42;;;;;;;40.42;20.40;;;;;;;;;;5037356;28;20072;-67
2021/11/04 11:04:14;;;;;;;40.85;21.17;;;;;;;;;;5017248;28;20053;-68
2021/11/04 11:06:41;;;;;;;39.40;19.77;;;;;;;;;;5027656;28;20049;-68
2021/11/04 11:09:09;;;;;;;34.55;18.90;;;;;;;;;;5021638;28;20049;-67
2021/11/04 11:11:39;;;;;;;33.35;18.13;;;;;;;;;;5026905;28;20498;-67
2021/11/04 11:14:06;;;;;;;34.97;19.45;;;;;;;;;;5028693;28;20073;-67
2021/11/04 11:16:34;;;;;;;35.47;19.50;;;;;;;;;;5047049;28;20756;-68
2021/11/04 11:19:01;;;;;;;35.75;20.13;;;;;;;;;;5027808;28;20064;-68
2021/11/04 11:21:28;;;;;;;37.25;19.23;;;;;;;;;;5024914;28;20442;-68
2021/11/04 11:23:55;;;;;;;37.85;20.52;;;;;;;;;;5027540;28;20068;-67
2021/11/04 11:26:22;;;;;;;36.05;19.77;;;;;;;;;;5021069;28;20411;-68
2021/11/04 11:28:48;;;;;;;32.53;17.92;;;;;;;;;;5022295;28;20065;-67
2021/11/04 11:31:15;;;;;;;33.13;18.60;;;;;;;;;;5022757;28;20049;-67
2021/11/04 11:33:42;;;;;;;31.00;18.77;;;;;;;;;;5020645;28;20049;-67
2021/11/04 11:36:10;;;;;;;32.58;18.55;;;;;;;;;;5027433;28;20065;-67
2021/11/04 11:38:54;;;;;;;37.40;20.52;;;;;;;;;;5020883;28;20092;-67
2021/11/04 11:41:21;;;;;;;38.83;20.52;;;;;;;;;;5025323;28;20064;-68
2021/11/04 11:44:02;;;;;;;43.28;22.17;;;;;;;;;;5016649;28;20577;-68
2021/11/04 11:46:29;;;;;;;42.13;23.13;;;;;;;;;;5025321;28;20164;-67
2021/11/04 11:49:10;;;;;;;41.85;22.48;;;;;;;;;;5033942;28;20049;-67
2021/11/04 11:51:40;;;;;;;42.15;22.25;;;;;;;;;;5027040;28;20058;-67
2021/11/04 11:54:07;;;;;;;38.47;21.88;;;;;;;;;;5027859;28;20053;-68
2021/11/04 11:56:36;;;;;;;43.75;23.05;;;;;;;;;;5017728;28;20910;-67
2021/11/04 11:59:16;;;;;;;41.33;21.10;;;;;;;;;;5024912;28;20057;-68
2021/11/04 12:01:44;;;;;;;41.75;21.70;;;;;;;;;;5030397;28;20057;-68
2021/11/04 12:04:27;;;;;;;40.33;21.13;;;;;;;;;;5030858;28;20045;-68
2021/11/04 12:06:54;;;;;;;44.95;23.10;;;;;;;;;;5023525;28;20072;-68
2021/11/04 12:09:31;;;;;;;40.63;22.00;;;;;;;;;;5030433;28;20053;-68
2021/11/04 12:11:57;;;;;;;41.67;23.35;;;;;;;;;;5019247;28;20053;-67
2021/11/04 12:14:28;;;;;;;38.85;21.38;;;;;;;;;;5036792;28;20069;-68
2021/11/04 12:17:01;;;;;;;41.92;22.27;;;;;;;;;;5030245;28;20421;-68
2021/11/04 12:19:38;;;;;;;36.28;21.98;;;;;;;;;;5022963;28;20056;-67
2021/11/04 12:22:09;;;;;;;40.85;22.83;;;;;;;;;;5037354;28;20096;-68
2021/11/04 12:24:51;;;;;;;39.65;23.15;;;;;;;;;;5016674;28;20562;-67
2021/11/04 12:27:18;;;;;;;38.45;21.60;;;;;;;;;;5029596;28;20045;-67
2021/11/04 12:29:45;;;;;;;39.80;23.30;;;;;;;;;;5023641;28;20136;-68
2021/11/04 12:32:12;;;;;;;40.92;22.60;;;;;;;;;;5030287;28;20059;-67
2021/11/04 12:34:39;;;;;;;39.22;23.00;;;;;;;;;;5043171;28;20057;-68
2021/11/04 12:37:14;;;;;;;44.67;22.90;;;;;;;;;;5024468;28;20049;-67
2021/11/04 12:39:44;;;;;;;40.55;22.70;;;;;;;;;;5028147;28;20060;-68
2021/11/04 12:42:12;;;;;;;39.30;22.80;;;;;;;;;;5035883;28;20053;-68
2021/11/04 12:44:38;;;;;;;39.05;22.27;;;;;;;;;;5030434;28;20057;-68
2021/11/04 12:47:06;;;;;;;43.05;22.83;;;;;;;;;;5024101;28;20068;-67
2021/11/04 12:49:34;;;;;;;41.85;22.95;;;;;;;;;;5040275;28;20063;-67
2021/11/04 12:52:01;;;;;;;38.60;22.77;;;;;;;;;;5018611;28;20139;-68
2021/11/04 12:54:32;;;;;;;41.22;22.67;;;;;;;;;;5024127;28;20395;-68
2021/11/04 12:57:03;;;;;;;39.38;23.13;;;;;;;;;;5029907;28;20068;-67
2021/11/04 12:59:47;;;;;;;36.45;21.63;;;;;;;;;;5022840;28;20049;-68
2021/11/04 13:02:22;;;;;;;46.05;22.85;;;;;;;;;;5038710;28;20049;-68
2021/11/04 13:04:59;;;;;;;40.67;22.35;;;;;;;;;;5031296;28;20055;-67
2021/11/04 13:07:31;;;;;;;38.33;21.20;;;;;;;;;;5027435;28;20051;-67
2021/11/04 13:09:59;;;;;;;43.03;23.38;;;;;;;;;;5022175;28;20045;-67
2021/11/04 13:12:42;;;;;;;42.43;23.50;;;;;;;;;;5031872;28;20060;-67
2021/11/04 13:15:12;;;;;;;37.05;21.33;;;;;;;;;;5028476;28;20087;-67
2021/11/04 13:17:38;;;;;;;41.95;22.98;;;;;;;;;;5030863;28;20065;-68
2021/11/04 13:20:05;;;;;;;41.58;22.35;;;;;;;;;;5039849;28;20056;-67
2021/11/04 13:22:33;;;;;;;42.58;22.80;;;;;;;;;;5028956;28;20061;-67
2021/11/04 13:25:04;;;;;;;41.67;22.40;;;;;;;;;;5029948;28;20049;-67
2021/11/04 13:27:30;;;;;;;34.58;21.17;;;;;;;;;;5023172;28;20049;-67
2021/11/04 13:29:58;;;;;;;35.65;21.65;;;;;;;;;;5028716;28;20076;-68
2021/11/04 13:32:48;;;;;;;34.42;20.77;;;;;;;;;;5019199;28;20076;-68
2021/11/04 13:35:44;;;;;;;37.95;22.60;;;;;;;;;;5038688;28;20766;-68
2021/11/04 13:38:10;;;;;;;35.67;20.45;;;;;;;;;;5029610;28;20055;-68
2021/11/04 13:40:38;;;;;;;33.95;20.30;;;;;;;;;;5027159;28;20046;-67
2021/11/04 13:43:04;;;;;;;31.40;20.70;;;;;;;;;;5024784;28;20068;-67
2021/11/04 13:45:31;;;;;;;40.85;21.55;;;;;;;;;;5029242;28;20651;-67
2021/11/04 13:47:59;;;;;;;40.65;21.90;;;;;;;;;;5024902;28;20048;-67
2021/11/04 13:50:40;;;;;;;36.40;22.27;;;;;;;;;;5031283;28;20045;-67
2021/11/04 13:53:18;;;;;;;32.97;20.15;;;;;;;;;;5029749;28;20050;-68
2021/11/04 13:55:46;;;;;;;30.55;19.20;;;;;;;;;;5023022;28;20059;-67
2021/11/04 13:58:12;;;;;;;28.70;17.52;;;;;;;;;;5029563;28;20049;-67
2021/11/04 14:00:38;;;;;;;30.50;18.40;;;;;;;;;;5024305;28;20049;-67
2021/11/04 14:03:10;;;;;;;32.27;19.00;;;;;;;;;;5032218;28;20068;-68
2021/11/04 14:05:53;;;;;;;33.17;17.70;;;;;;;;;;5044621;28;20412;-67
2021/11/04 14:08:20;;;;;;;28.98;17.77;;;;;;;;;;5041406;28;20050;-68
2021/11/04 14:10:46;;;;;;;26.58;16.35;;;;;;;;;;5028777;28;20056;-68
2021/11/04 14:13:13;;;;;;;29.45;17.88;;;;;;;;;;5022726;28;20057;-68
2021/11/04 14:15:40;;;;;;;31.05;18.60;;;;;;;;;;5023477;28;20486;-68
2021/11/04 14:18:28;;;;;;;31.42;18.73;;;;;;;;;;5016173;28;20473;-68
2021/11/04 14:20:54;;;;;;;;;;;;;;;;;;5029187;28;20049;-67
2021/11/04 14:23:22;;;;;;;30.38;17.80;;;;;;;;;;5022363;28;19935;-67